Pagrindinis puslapis
METAR-TAF:

METAR-TAF

Oro uostai :

Ikaluitas, Nunavutas, Kanada

platuma: 63-45N, ilguma: 068-33W, Aukštis: 34 m

Dabartinis oras

Ataskaita buvo paskelbta 26 minutes, ne 03:00 UTC
Vėjas 3 kt iš Šiaurės
Temperatūra -31°C
Drėgmė 68%
Slėgis 995 hPa
Matomumas: 24.1 km
Mažai debesys ne aukštis 3300 ft
Mažai debesys ne aukštis 6200 ft
Išsisklaidę debesys ne aukštis 14000 ft
ledo kristalai

METAR: CYFB 170300Z 35003KT 15SM IC FEW033 FEW062 SCT140 M31/M35 A2939 RMK SC1SC2AC1 SC TR SLP959

Laikas: 22:26 (03:26 UTC)

Prognozė

Ataskaita buvo paskelbta 3 valandos ir 48 minutes, ne 23:38 UTC
Prognozė galioja nuo 17 metu 00 UTC su 17 metu 24 UTC
Vėjas 3 kt nuo kintamojo kryptimis
Matomumas: 10 km
Išsisklaidę debesys ne aukštis 10000 ft
ledo kristalai

TAF: CYFB 162338Z 1700/1724 VRB03KT P6SM IC SCT100 RMK NXT FCST BY 170600Z

Orai ataskaitas ir orų prognozės (METAR, TAF).

turimą stotys yra geltonos ir raudonos taškus žemėlapyje.

Perkelti pele per norėdami pamatyti stoties vardą.

Tada spustelėkite, norėdami matyti oro stebėjimo ir prognozės.

Norėdami pakeisti žemėlapį: spustelėkite ant žalios mygtukų su juodo kryžiaus žemyn,; žalią mygtuką su brūkšneliu, jei norite nutolinti; arba žalių rodyklių gretimoms žemėlapius.


METAR-TAF: